Time;durP1;ratioP1;P1;durP2;ratioP2;P2;SDS_P1;SDS_P2;PMS_P1;PMS_P2;Temp;Humidity;BMP_temperature;BMP_pressure;BME280_temperature;BME280_humidity;BME280_pressure;Samples;Min_cycle;Max_cycle;Signal;HPM_P1;HPM_P2
2023/08/06 00:00:58;;;;;;;2.50;2.40;;;23.40;99.90;;;;;;5027764;28;20469;-53
2023/08/06 00:03:25;;;;;;;1.83;1.73;;;23.40;99.90;;;;;;5024072;28;20458;-55
2023/08/06 00:05:52;;;;;;;2.27;2.17;;;23.40;99.90;;;;;;5023491;28;20798;-57
2023/08/06 00:08:19;;;;;;;2.90;2.70;;;23.40;99.90;;;;;;5024889;28;20964;-55
2023/08/06 00:10:48;;;;;;;2.27;2.17;;;23.40;99.90;;;;;;5026583;28;20493;-58
2023/08/06 00:13:16;;;;;;;2.10;2.00;;;23.30;99.90;;;;;;5024933;28;20477;-57
2023/08/06 00:15:43;;;;;;;2.13;1.93;;;23.40;99.90;;;;;;5023019;28;20956;-58
2023/08/06 00:18:10;;;;;;;1.97;1.87;;;23.30;99.90;;;;;;5024765;28;20473;-57
2023/08/06 00:20:40;;;;;;;2.00;1.90;;;23.30;99.90;;;;;;5026703;28;20540;-57
2023/08/06 00:23:07;;;;;;;2.20;2.00;;;23.30;99.90;;;;;;5026956;28;20469;-58
2023/08/06 00:25:33;;;;;;;2.00;1.90;;;23.30;99.90;;;;;;5023399;28;20470;-55
2023/08/06 00:28:00;;;;;;;3.60;2.20;;;23.30;99.90;;;;;;5022941;28;20477;-55
2023/08/06 00:30:29;;;;;;;2.10;1.90;;;23.20;99.90;;;;;;5026111;28;20505;-57
2023/08/06 00:32:55;;;;;;;2.20;2.10;;;23.20;99.90;;;;;;5026381;28;20476;-56
2023/08/06 00:35:22;;;;;;;1.97;1.87;;;23.20;99.90;;;;;;5018591;28;20947;-53
2023/08/06 00:37:49;;;;;;;2.50;2.30;;;23.20;99.90;;;;;;5026344;28;20883;-56
2023/08/06 00:40:16;;;;;;;2.20;2.10;;;23.20;99.90;;;;;;5024883;28;20480;-56
2023/08/06 00:42:44;;;;;;;2.17;2.07;;;23.20;99.90;;;;;;5022473;28;20485;-57
2023/08/06 00:45:11;;;;;;;2.40;2.20;;;23.20;99.90;;;;;;5023966;28;20465;-56
2023/08/06 00:47:40;;;;;;;2.00;1.90;;;23.20;99.90;;;;;;5026371;28;20865;-56
2023/08/06 00:50:08;;;;;;;2.20;2.07;;;23.20;99.90;;;;;;5025680;28;20466;-57
2023/08/06 00:52:36;;;;;;;1.70;1.60;;;23.20;99.90;;;;;;5022021;28;20453;-55
2023/08/06 00:55:04;;;;;;;1.93;1.80;;;23.10;99.90;;;;;;5022791;28;20512;-56
2023/08/06 00:57:31;;;;;;;3.90;1.87;;;23.10;99.90;;;;;;5014663;28;20508;-57
2023/08/06 00:59:58;;;;;;;2.37;2.23;;;23.10;99.90;;;;;;5022676;28;21005;-56
2023/08/06 01:02:24;;;;;;;2.77;2.57;;;23.10;99.90;;;;;;5025360;28;20474;-57
2023/08/06 01:04:53;;;;;;;2.30;1.83;;;23.10;99.90;;;;;;5018498;28;20473;-55
2023/08/06 01:07:30;;;;;;;2.10;2.00;;;23.10;99.90;;;;;;5023134;28;20481;-54
2023/08/06 01:10:11;;;;;;;2.00;1.90;;;23.10;99.90;;;;;;5025875;28;20500;-58
2023/08/06 01:12:46;;;;;;;2.60;2.40;;;23.10;99.90;;;;;;5015324;28;20871;-56
2023/08/06 01:15:17;;;;;;;2.33;2.23;;;23.10;99.90;;;;;;5023811;28;20505;-57
2023/08/06 01:17:46;;;;;;;2.20;2.10;;;23.10;99.90;;;;;;5026017;28;20469;-54
2023/08/06 01:20:14;;;;;;;2.90;2.70;;;23.00;99.90;;;;;;5024989;28;20500;-58
2023/08/06 01:22:42;;;;;;;2.73;2.53;;;23.00;99.90;;;;;;5021653;28;20481;-57
2023/08/06 01:25:09;;;;;;;3.37;3.07;;;23.10;99.90;;;;;;5022422;28;20458;-57
2023/08/06 01:27:44;;;;;;;1.67;1.57;;;23.00;99.90;;;;;;5026359;28;20936;-57
2023/08/06 01:30:16;;;;;;;2.67;2.50;;;23.00;99.90;;;;;;5024970;28;20488;-57
2023/08/06 01:32:45;;;;;;;2.07;1.97;;;23.00;99.90;;;;;;5021650;28;20470;-56
2023/08/06 01:35:16;;;;;;;2.07;1.97;;;23.00;99.90;;;;;;5023835;28;20478;-57
2023/08/06 01:37:45;;;;;;;1.93;1.83;;;23.00;99.90;;;;;;5026109;28;20487;-58
2023/08/06 01:40:12;;;;;;;1.97;1.87;;;23.00;99.90;;;;;;5025077;28;20875;-56
2023/08/06 01:42:40;;;;;;;2.73;2.50;;;23.00;99.90;;;;;;5022246;28;20484;-58
2023/08/06 01:45:08;;;;;;;2.37;2.17;;;23.00;99.90;;;;;;5022966;28;20470;-57
2023/08/06 01:47:35;;;;;;;1.90;1.80;;;22.90;99.90;;;;;;5026365;28;20945;-58
2023/08/06 01:50:02;;;;;;;2.20;2.10;;;22.90;99.90;;;;;;5025709;28;20471;-54
2023/08/06 01:52:29;;;;;;;1.50;1.50;;;23.00;99.90;;;;;;5018011;28;20446;-56
2023/08/06 01:54:57;;;;;;;2.43;2.23;;;22.90;99.90;;;;;;5026007;28;20513;-58
2023/08/06 01:57:24;;;;;;;2.50;2.40;;;22.90;99.90;;;;;;5019531;28;20520;-56
2023/08/06 01:59:51;;;;;;;1.80;1.70;;;22.90;99.90;;;;;;5020989;28;20470;-55
2023/08/06 02:02:18;;;;;;;2.07;1.97;;;22.90;99.90;;;;;;5028905;28;20483;-56
2023/08/06 02:04:45;;;;;;;2.30;2.20;;;22.90;99.90;;;;;;5023897;28;20438;-56
2023/08/06 02:07:11;;;;;;;2.53;2.13;;;22.90;99.90;;;;;;5023715;28;20477;-56
2023/08/06 02:09:38;;;;;;;3.13;2.20;;;22.90;99.90;;;;;;5028278;28;20484;-57
2023/08/06 02:12:08;;;;;;;1.93;1.83;;;22.90;99.90;;;;;;5029293;28;20453;-55
2023/08/06 02:14:36;;;;;;;2.33;2.13;;;22.90;99.90;;;;;;5018310;28;20513;-56
2023/08/06 02:17:02;;;;;;;1.90;1.70;;;22.90;99.90;;;;;;5027084;28;20448;-54
2023/08/06 02:19:29;;;;;;;2.23;1.83;;;22.90;99.90;;;;;;5027429;28;20495;-54
2023/08/06 02:21:56;;;;;;;1.90;1.80;;;22.90;99.90;;;;;;5026093;28;20483;-57
2023/08/06 02:24:23;;;;;;;2.00;1.90;;;22.90;99.90;;;;;;5027561;28;20926;-58
2023/08/06 02:26:51;;;;;;;2.20;2.10;;;22.90;99.90;;;;;;5029390;28;20503;-56
2023/08/06 02:29:19;;;;;;;1.50;1.40;;;22.90;99.90;;;;;;5028051;28;20484;-58
2023/08/06 02:31:46;;;;;;;1.80;1.70;;;22.90;99.90;;;;;;5026429;28;20473;-58
2023/08/06 02:34:13;;;;;;;1.97;1.97;;;22.90;99.90;;;;;;5026418;28;20549;-57
2023/08/06 02:36:40;;;;;;;2.00;1.80;;;22.90;99.90;;;;;;5028755;28;20476;-56
2023/08/06 02:39:06;;;;;;;2.60;1.87;;;22.90;99.90;;;;;;5028878;28;20492;-55
2023/08/06 02:41:33;;;;;;;2.10;2.00;;;22.80;99.90;;;;;;5024344;28;20470;-57
2023/08/06 02:44:00;;;;;;;2.00;1.90;;;22.80;99.90;;;;;;5026424;28;20446;-57
2023/08/06 02:46:28;;;;;;;1.73;1.63;;;22.80;99.90;;;;;;5028652;28;20476;-58
2023/08/06 02:48:55;;;;;;;2.83;2.63;;;22.80;99.90;;;;;;5029190;28;20496;-57
2023/08/06 02:51:22;;;;;;;2.17;2.07;;;22.80;99.90;;;;;;5027658;28;20925;-57
2023/08/06 02:53:49;;;;;;;2.00;1.90;;;22.80;99.90;;;;;;5031505;28;20903;-57
2023/08/06 02:56:16;;;;;;;2.33;2.13;;;22.80;99.90;;;;;;5029317;28;20824;-57
2023/08/06 02:58:43;;;;;;;2.00;1.90;;;22.80;99.90;;;;;;5028525;28;20899;-55
2023/08/06 03:01:10;;;;;;;2.00;1.80;;;22.80;99.90;;;;;;5028472;28;20476;-57
2023/08/06 03:03:38;;;;;;;2.10;1.90;;;22.80;99.90;;;;;;5026367;28;20473;-56
2023/08/06 03:06:04;;;;;;;1.50;1.50;;;22.80;99.90;;;;;;5025717;28;20477;-54
2023/08/06 03:08:31;;;;;;;2.57;2.47;;;22.80;99.90;;;;;;5028174;28;20449;-57
2023/08/06 03:10:58;;;;;;;2.70;2.50;;;22.80;99.90;;;;;;5028484;28;20480;-58
2023/08/06 03:13:25;;;;;;;2.37;2.17;;;22.80;99.90;;;;;;5026824;28;20469;-57
2023/08/06 03:15:56;;;;;;;2.20;1.83;;;22.80;99.90;;;;;;5026235;28;20505;-58
2023/08/06 03:18:23;;;;;;;1.70;1.70;;;22.80;99.90;;;;;;5026575;28;20555;-57
2023/08/06 03:20:51;;;;;;;2.23;2.00;;;22.80;99.90;;;;;;5025890;28;20488;-56
2023/08/06 03:23:18;;;;;;;2.47;2.37;;;22.80;99.90;;;;;;5028188;28;20472;-57
2023/08/06 03:25:46;;;;;;;2.00;1.90;;;22.80;99.90;;;;;;5025985;28;20831;-56
2023/08/06 03:28:13;;;;;;;2.03;1.90;;;22.80;99.90;;;;;;5024819;28;20462;-56
2023/08/06 03:30:39;;;;;;;2.20;2.10;;;22.80;99.90;;;;;;5028131;28;20888;-57
2023/08/06 03:33:06;;;;;;;2.47;2.37;;;22.80;99.90;;;;;;5028527;28;20495;-58
2023/08/06 03:35:33;;;;;;;1.43;1.43;;;22.80;99.90;;;;;;5025519;28;20502;-57
2023/08/06 03:38:01;;;;;;;2.60;2.27;;;22.80;99.90;;;;;;5023993;28;20470;-58
2023/08/06 03:40:28;;;;;;;2.30;1.73;;;22.80;99.90;;;;;;5026807;28;20501;-58
2023/08/06 03:42:55;;;;;;;2.10;1.90;;;22.80;99.90;;;;;;5027909;28;20445;-55
2023/08/06 03:45:22;;;;;;;1.90;1.77;;;22.80;99.90;;;;;;5019752;28;20470;-58
2023/08/06 03:47:49;;;;;;;1.80;1.70;;;22.80;99.90;;;;;;5028336;28;20469;-53
2023/08/06 03:50:16;;;;;;;1.87;1.77;;;22.70;99.90;;;;;;5024729;28;20501;-53
2023/08/06 03:52:43;;;;;;;1.83;1.73;;;22.80;99.90;;;;;;5029070;28;20469;-53
2023/08/06 03:55:11;;;;;;;2.23;2.13;;;22.70;99.90;;;;;;5029156;28;20508;-55
2023/08/06 03:57:38;;;;;;;1.93;1.83;;;22.70;99.90;;;;;;5017779;28;20466;-55
2023/08/06 04:00:06;;;;;;;2.60;1.97;;;22.70;99.90;;;;;;5014992;28;20898;-54
2023/08/06 04:02:32;;;;;;;2.00;1.90;;;22.70;99.90;;;;;;5027382;28;20442;-55
2023/08/06 04:04:59;;;;;;;2.10;2.00;;;22.70;99.90;;;;;;5025691;28;20471;-53
2023/08/06 04:07:26;;;;;;;1.50;1.50;;;22.70;99.90;;;;;;5022212;28;20814;-52
2023/08/06 04:09:55;;;;;;;1.30;1.30;;;22.70;99.90;;;;;;5007927;28;20499;-55
2023/08/06 04:12:23;;;;;;;2.40;2.10;;;22.70;99.90;;;;;;5022966;28;20438;-53
2023/08/06 04:14:51;;;;;;;3.07;1.83;;;22.70;99.90;;;;;;5012966;28;20564;-56
2023/08/06 04:17:20;;;;;;;2.90;2.70;;;22.70;99.90;;;;;;5012851;28;20457;-52
2023/08/06 04:19:48;;;;;;;1.53;1.47;;;22.70;99.90;;;;;;5012673;28;21050;-52
2023/08/06 04:22:15;;;;;;;1.80;1.70;;;22.70;99.90;;;;;;5013007;28;20824;-52
2023/08/06 04:24:43;;;;;;;1.80;1.70;;;22.70;99.90;;;;;;5013071;28;20453;-54
2023/08/06 04:27:10;;;;;;;1.77;1.67;;;22.70;99.90;;;;;;5008168;28;20817;-53
2023/08/06 04:29:39;;;;;;;1.80;1.70;;;22.70;99.90;;;;;;5013069;28;20520;-53
2023/08/06 04:32:08;;;;;;;1.47;1.30;;;22.70;99.90;;;;;;5012276;28;20870;-52
2023/08/06 04:34:35;;;;;;;1.53;1.43;;;22.70;99.90;;;;;;5012595;28;20478;-53
2023/08/06 04:37:02;;;;;;;1.93;1.40;;;22.70;99.90;;;;;;5007186;28;20470;-55
2023/08/06 04:39:29;;;;;;;1.90;1.80;;;22.70;99.90;;;;;;4993109;28;20901;-57
2023/08/06 04:41:56;;;;;;;1.93;1.80;;;22.60;99.90;;;;;;4993005;28;20474;-53
2023/08/06 04:44:23;;;;;;;1.50;1.50;;;22.70;99.90;;;;;;4993026;28;20475;-52
2023/08/06 04:46:52;;;;;;;3.13;1.93;;;22.70;99.90;;;;;;4996459;28;20474;-56
2023/08/06 04:49:19;;;;;;;1.67;1.57;;;22.60;99.90;;;;;;5012572;28;20489;-55
2023/08/06 04:51:46;;;;;;;16.77;16.07;;;22.60;99.90;;;;;;5012066;28;20470;-63
2023/08/06 04:54:13;;;;;;;16.80;15.90;;;22.60;99.90;;;;;;5011916;28;20525;-59
2023/08/06 04:56:40;;;;;;;15.87;15.37;;;22.70;99.90;;;;;;5009435;28;20517;-63
2023/08/06 04:59:07;;;;;;;16.23;15.73;;;22.70;99.90;;;;;;4995870;28;20474;-51
2023/08/06 05:01:34;;;;;;;16.30;15.70;;;22.70;99.90;;;;;;4991977;28;20482;-53
2023/08/06 05:04:02;;;;;;;16.73;16.17;;;22.80;99.90;;;;;;4992193;28;20493;-52
2023/08/06 05:06:29;;;;;;;15.73;15.13;;;22.90;99.90;;;;;;4991907;28;20474;-56
2023/08/06 05:08:56;;;;;;;15.73;15.03;;;22.90;99.90;;;;;;5011035;28;20901;-59
2023/08/06 05:11:23;;;;;;;16.00;15.50;;;23.10;99.90;;;;;;4999510;28;20475;-58
2023/08/06 05:13:50;;;;;;;16.73;16.23;;;23.20;99.90;;;;;;4991797;28;20475;-58
2023/08/06 05:16:17;;;;;;;17.57;16.37;;;23.30;99.90;;;;;;4991738;28;20565;-59
2023/08/06 05:18:44;;;;;;;17.43;16.73;;;23.50;99.90;;;;;;4991801;28;20998;-57
2023/08/06 05:21:12;;;;;;;17.53;16.83;;;23.60;99.90;;;;;;4991630;28;20856;-59
2023/08/06 05:23:39;;;;;;;17.00;16.50;;;23.70;99.90;;;;;;5009963;28;20546;-57
2023/08/06 05:26:06;;;;;;;16.87;16.27;;;23.90;99.90;;;;;;5011366;28;20871;-53
2023/08/06 05:28:33;;;;;;;17.77;16.67;;;24.00;99.90;;;;;;5011242;28;20481;-57
2023/08/06 05:31:03;;;;;;;17.00;16.40;;;24.10;99.90;;;;;;5011171;28;20477;-57
2023/08/06 05:33:30;;;;;;;17.30;16.73;;;24.20;99.90;;;;;;4994355;28;20505;-58
2023/08/06 05:35:57;;;;;;;17.33;16.63;;;24.30;99.90;;;;;;4991747;28;20570;-59
2023/08/06 05:38:25;;;;;;;17.17;16.47;;;24.40;99.70;;;;;;4991695;28;20482;-53
2023/08/06 05:40:52;;;;;;;16.90;16.40;;;24.50;99.40;;;;;;4991408;28;20474;-57
2023/08/06 05:43:19;;;;;;;17.30;16.70;;;24.60;99.00;;;;;;5006849;28;20450;-56
2023/08/06 05:45:46;;;;;;;16.80;16.30;;;24.60;98.60;;;;;;5015059;28;20469;-57
2023/08/06 05:48:13;;;;;;;17.73;17.13;;;24.80;98.50;;;;;;5014995;28;20817;-57
2023/08/06 05:50:40;;;;;;;16.50;16.00;;;24.90;98.00;;;;;;5014553;28;20500;-56
2023/08/06 05:53:07;;;;;;;17.53;17.03;;;24.90;97.60;;;;;;5001613;28;20493;-53
2023/08/06 05:55:35;;;;;;;18.63;18.03;;;25.00;97.30;;;;;;4995248;28;20489;-53
2023/08/06 05:58:02;;;;;;;18.67;17.90;;;25.00;97.00;;;;;;4995200;28;20478;-51
2023/08/06 06:00:29;;;;;;;18.23;17.63;;;25.10;96.90;;;;;;4994689;28;20506;-55
2023/08/06 06:02:56;;;;;;;17.30;16.80;;;25.10;96.70;;;;;;4995041;28;20582;-60
2023/08/06 06:05:23;;;;;;;17.53;16.93;;;25.20;96.20;;;;;;4995060;28;20478;-55
2023/08/06 06:07:50;;;;;;;17.43;16.83;;;25.20;96.30;;;;;;4994850;28;20475;-54
2023/08/06 06:10:17;;;;;;;17.73;17.13;;;25.20;96.20;;;;;;4994613;28;20494;-53
2023/08/06 06:12:45;;;;;;;17.07;16.57;;;25.20;96.00;;;;;;5004382;28;20504;-53
2023/08/06 06:15:12;;;;;;;17.07;16.50;;;25.20;96.00;;;;;;5014311;28;20984;-58
2023/08/06 06:17:39;;;;;;;17.90;17.20;;;25.30;95.70;;;;;;5014235;28;20477;-56
2023/08/06 06:20:07;;;;;;;18.37;17.80;;;25.40;95.50;;;;;;5013621;28;20558;-54
2023/08/06 06:22:34;;;;;;;17.50;16.90;;;25.40;95.40;;;;;;5014179;28;20485;-59
2023/08/06 06:25:01;;;;;;;17.43;16.60;;;25.40;95.10;;;;;;5014082;28;20474;-55
2023/08/06 06:27:28;;;;;;;18.70;18.10;;;25.50;94.90;;;;;;5014009;28;20470;-53
2023/08/06 06:29:56;;;;;;;17.10;16.50;;;25.50;94.60;;;;;;5013612;28;20494;-56
2023/08/06 06:32:23;;;;;;;17.87;17.27;;;25.50;94.40;;;;;;4994567;28;20509;-55
2023/08/06 06:34:50;;;;;;;18.33;17.63;;;25.50;94.40;;;;;;4994534;28;20470;-55
2023/08/06 06:37:17;;;;;;;20.00;19.30;;;25.60;94.50;;;;;;4994114;28;20572;-57
2023/08/06 06:39:44;;;;;;;17.90;17.33;;;25.60;94.20;;;;;;4994153;28;20517;-52
2023/08/06 06:42:11;;;;;;;20.07;19.27;;;25.60;94.10;;;;;;4994216;28;20458;-59
2023/08/06 06:44:38;;;;;;;19.27;18.57;;;25.70;93.90;;;;;;4994254;28;20889;-60
2023/08/06 06:47:06;;;;;;;19.07;18.30;;;25.70;93.70;;;;;;4994238;28;20787;-54
2023/08/06 06:49:38;;;;;;;18.67;18.07;;;25.70;94.00;;;;;;4994255;28;20494;-61
2023/08/06 06:52:11;;;;;;;18.77;18.17;;;25.80;93.40;;;;;;5010001;28;20876;-58
2023/08/06 06:54:38;;;;;;;17.47;16.93;;;25.70;93.30;;;;;;5012875;28;20861;-56
2023/08/06 06:57:06;;;;;;;18.23;17.60;;;25.80;93.40;;;;;;5013660;28;20482;-61
2023/08/06 06:59:33;;;;;;;19.70;19.10;;;25.90;93.20;;;;;;5013471;28;20470;-50
2023/08/06 07:02:00;;;;;;;19.07;18.40;;;25.90;93.20;;;;;;4998740;28;20447;-51
2023/08/06 07:04:28;;;;;;;18.00;17.30;;;25.90;92.80;;;;;;4994168;28;20475;-54
2023/08/06 07:06:55;;;;;;;19.50;18.67;;;25.90;92.60;;;;;;4993932;28;20868;-57
2023/08/06 07:09:22;;;;;;;17.50;16.90;;;25.90;93.50;;;;;;4997700;28;20516;-66
2023/08/06 07:11:49;;;;;;;19.20;18.50;;;26.00;93.10;;;;;;5013254;28;20474;-57
2023/08/06 07:14:16;;;;;;;20.00;19.10;;;26.10;92.70;;;;;;5013506;28;20513;-54
2023/08/06 07:16:42;;;;;;;18.63;18.03;;;26.10;92.90;;;;;;5009881;28;20516;-56
2023/08/06 07:19:09;;;;;;;18.27;17.47;;;26.10;92.70;;;;;;4993727;28;20499;-64
2023/08/06 07:21:38;;;;;;;18.30;17.60;;;26.10;92.60;;;;;;4999586;28;20441;-57
2023/08/06 07:24:05;;;;;;;18.47;17.63;;;26.10;92.50;;;;;;5012537;28;20474;-58
2023/08/06 07:26:32;;;;;;;17.93;17.23;;;26.10;92.50;;;;;;5012588;28;20443;-56
2023/08/06 07:28:59;;;;;;;18.97;18.37;;;26.10;92.50;;;;;;5012455;28;20474;-51
2023/08/06 07:31:26;;;;;;;17.60;17.00;;;26.10;92.50;;;;;;5012459;28;20446;-55
2023/08/06 07:33:53;;;;;;;18.13;17.20;;;26.10;92.50;;;;;;5004906;28;20951;-51
2023/08/06 07:36:20;;;;;;;19.17;18.57;;;26.20;92.20;;;;;;4992593;28;20894;-68
2023/08/06 07:38:55;;;;;;;19.57;18.87;;;26.20;92.20;;;;;;4992605;28;20466;-59
2023/08/06 07:41:22;;;;;;;17.43;16.83;;;26.20;92.00;;;;;;4992472;28;20517;-57
2023/08/06 07:43:49;;;;;;;17.63;17.03;;;26.10;92.00;;;;;;4992542;28;20455;-54
2023/08/06 07:46:16;;;;;;;17.03;16.33;;;26.10;92.10;;;;;;4992539;28;20788;-58
2023/08/06 07:48:43;;;;;;;18.00;17.40;;;26.10;92.10;;;;;;4999291;28;20454;-56
2023/08/06 07:51:10;;;;;;;17.90;17.33;;;26.10;92.10;;;;;;5011874;28;20987;-58
2023/08/06 07:53:37;;;;;;;19.00;18.23;;;26.10;92.20;;;;;;5012184;28;20497;-58
2023/08/06 07:56:05;;;;;;;17.60;17.10;;;26.10;92.10;;;;;;5011823;28;20552;-57
2023/08/06 07:58:32;;;;;;;18.80;18.10;;;26.10;92.10;;;;;;5011726;28;20450;-56
2023/08/06 08:00:59;;;;;;;17.50;17.00;;;26.10;92.10;;;;;;5011802;28;20450;-57
2023/08/06 08:03:26;;;;;;;17.10;16.60;;;26.00;92.10;;;;;;5011938;28;20820;-59
2023/08/06 08:05:57;;;;;;;19.13;18.53;;;26.00;92.00;;;;;;5011397;28;20791;-58
2023/08/06 08:08:24;;;;;;;18.80;18.10;;;26.10;92.20;;;;;;5011553;28;20452;-58
2023/08/06 08:10:51;;;;;;;19.73;19.03;;;26.10;92.10;;;;;;5022888;28;20441;-53
2023/08/06 08:13:19;;;;;;;18.37;17.73;;;26.20;92.30;;;;;;5031486;28;20944;-58
2023/08/06 08:15:47;;;;;;;18.23;17.67;;;26.20;92.00;;;;;;5031319;28;20436;-56
2023/08/06 08:18:14;;;;;;;18.93;18.33;;;26.20;91.80;;;;;;5031410;28;20476;-56
2023/08/06 08:20:41;;;;;;;20.60;19.77;;;26.10;91.80;;;;;;5031017;28;20499;-55
2023/08/06 08:23:08;;;;;;;19.23;18.63;;;26.10;91.80;;;;;;5031236;28;20523;-61
2023/08/06 08:25:35;;;;;;;19.97;19.27;;;26.10;91.90;;;;;;5031602;28;20495;-51
2023/08/06 08:28:02;;;;;;;18.77;18.17;;;26.10;91.90;;;;;;5031384;28;20436;-54
2023/08/06 08:30:30;;;;;;;18.20;17.50;;;26.10;91.90;;;;;;5031338;28;20538;-55
2023/08/06 08:32:57;;;;;;;18.50;17.90;;;26.20;91.80;;;;;;5031644;28;20460;-55
2023/08/06 08:35:24;;;;;;;17.37;16.70;;;26.20;91.50;;;;;;5031240;28;20498;-55
2023/08/06 08:37:51;;;;;;;18.50;17.90;;;26.30;91.40;;;;;;5031276;28;20554;-55
2023/08/06 08:40:19;;;;;;;19.23;18.60;;;26.30;91.30;;;;;;5031269;28;20469;-56
2023/08/06 08:42:46;;;;;;;20.67;19.77;;;26.30;91.30;;;;;;5031102;28;20437;-60
2023/08/06 08:45:14;;;;;;;20.83;19.90;;;26.30;91.50;;;;;;5031194;28;20500;-62
2023/08/06 08:47:43;;;;;;;19.27;18.57;;;26.30;91.50;;;;;;5030947;28;20437;-58
2023/08/06 08:50:13;;;;;;;21.27;20.47;;;26.30;91.30;;;;;;5030637;28;20827;-59
2023/08/06 08:52:40;;;;;;;17.90;17.20;;;26.40;91.30;;;;;;5030878;28;20441;-62
2023/08/06 08:55:09;;;;;;;20.00;19.10;;;26.40;91.30;;;;;;5030808;28;20436;-63
2023/08/06 08:57:36;;;;;;;18.03;17.43;;;26.40;91.20;;;;;;5031017;28;20572;-66
2023/08/06 09:00:04;;;;;;;19.60;18.83;;;26.30;91.40;;;;;;5030383;28;20947;-66
2023/08/06 09:02:33;;;;;;;18.70;18.10;;;26.30;91.80;;;;;;5030730;28;20445;-63
2023/08/06 09:05:04;;;;;;;18.67;18.00;;;26.30;91.50;;;;;;5030684;28;20449;-64
2023/08/06 09:07:35;;;;;;;18.43;17.83;;;26.40;91.50;;;;;;5030764;28;20483;-65
2023/08/06 09:10:04;;;;;;;19.57;18.87;;;26.40;91.30;;;;;;5025795;28;20457;-63
2023/08/06 09:12:32;;;;;;;20.00;19.30;;;26.40;91.50;;;;;;5010811;28;20452;-56
2023/08/06 09:15:03;;;;;;;20.10;19.50;;;26.30;91.90;;;;;;5010980;28;20885;-56
2023/08/06 09:17:30;;;;;;;19.60;18.90;;;26.40;91.30;;;;;;5011460;28;21000;-51
2023/08/06 09:19:59;;;;;;;20.77;19.97;;;26.40;91.60;;;;;;5014664;28;20461;-53
2023/08/06 09:22:35;;;;;;;20.97;20.27;;;26.30;91.40;;;;;;5014700;28;20452;-58
2023/08/06 09:25:03;;;;;;;19.20;18.40;;;26.20;91.70;;;;;;5014558;28;20880;-53
2023/08/06 09:27:31;;;;;;;21.27;20.47;;;26.20;91.80;;;;;;5014689;28;20784;-54
2023/08/06 09:29:58;;;;;;;19.93;19.23;;;26.20;91.60;;;;;;5014431;28;20458;-52
2023/08/06 09:32:28;;;;;;;19.13;18.53;;;26.10;91.80;;;;;;5014685;28;20949;-54
2023/08/06 09:34:57;;;;;;;18.47;17.87;;;26.10;92.00;;;;;;5014522;28;20942;-52
2023/08/06 09:37:26;;;;;;;21.10;20.30;;;26.20;91.60;;;;;;5014570;28;20489;-65
2023/08/06 09:39:55;;;;;;;19.20;18.60;;;26.30;91.70;;;;;;5014122;28;20977;-64
2023/08/06 09:42:22;;;;;;;18.70;18.10;;;26.30;91.60;;;;;;5014598;28;20945;-64
2023/08/06 09:44:48;;;;;;;17.77;17.27;;;26.30;91.60;;;;;;5014479;28;20457;-61
2023/08/06 09:47:18;;;;;;;18.10;17.40;;;26.20;91.50;;;;;;5014373;28;20454;-62
2023/08/06 09:49:45;;;;;;;18.30;17.70;;;26.20;91.70;;;;;;5014086;28;20965;-62
2023/08/06 09:52:15;;;;;;;19.00;18.40;;;26.30;91.80;;;;;;5014231;28;20537;-61
2023/08/06 09:54:45;;;;;;;19.20;18.40;;;26.20;91.80;;;;;;5014375;28;20529;-63
2023/08/06 09:57:15;;;;;;;18.67;18.07;;;26.20;91.80;;;;;;5014165;28;20508;-63
2023/08/06 09:59:45;;;;;;;17.97;17.27;;;26.20;91.80;;;;;;5014050;28;20985;-64
2023/08/06 10:02:14;;;;;;;18.43;17.83;;;26.20;91.70;;;;;;5014228;28;20446;-58
2023/08/06 10:04:42;;;;;;;19.63;18.83;;;26.20;92.00;;;;;;5014098;28;20877;-58
2023/08/06 10:07:09;;;;;;;19.50;18.90;;;26.20;91.90;;;;;;5013871;28;20934;-57
2023/08/06 10:09:37;;;;;;;19.67;18.33;;;26.20;91.90;;;;;;5012851;28;20531;-59
2023/08/06 10:12:04;;;;;;;18.60;17.90;;;26.20;91.90;;;;;;4994212;28;20454;-58
2023/08/06 10:14:36;;;;;;;19.87;19.17;;;26.30;92.10;;;;;;5007408;28;20441;-51
2023/08/06 10:17:04;;;;;;;19.20;18.57;;;26.30;91.80;;;;;;5034234;28;20477;-52
2023/08/06 10:19:32;;;;;;;17.80;17.00;;;26.30;91.50;;;;;;5033703;28;20496;-53
2023/08/06 10:22:13;;;;;;;19.10;18.40;;;26.40;91.60;;;;;;5033407;28;20456;-56
2023/08/06 10:24:53;;;;;;;19.37;18.47;;;26.30;92.00;;;;;;5033570;28;20451;-56
2023/08/06 10:27:29;;;;;;;18.13;17.43;;;26.30;92.10;;;;;;5033445;28;20441;-57
2023/08/06 10:30:17;;;;;;;18.10;17.20;;;26.30;91.80;;;;;;5032227;28;20453;-55
2023/08/06 10:32:48;;;;;;;18.17;17.57;;;26.20;91.90;;;;;;5033222;28;20449;-56
2023/08/06 10:35:30;;;;;;;18.60;18.00;;;26.20;91.90;;;;;;5033346;28;20441;-54
2023/08/06 10:38:00;;;;;;;17.10;16.60;;;26.20;91.90;;;;;;5033184;28;20523;-59
2023/08/06 10:40:29;;;;;;;19.57;18.50;;;26.20;92.00;;;;;;5032841;28;20877;-56
2023/08/06 10:42:56;;;;;;;18.33;17.73;;;26.20;91.80;;;;;;5033107;28;20448;-56
2023/08/06 10:45:28;;;;;;;17.33;16.83;;;26.20;91.80;;;;;;5033010;28;20480;-58
2023/08/06 10:47:57;;;;;;;17.33;16.83;;;26.20;91.70;;;;;;5032900;28;20437;-55
2023/08/06 10:50:24;;;;;;;19.67;18.83;;;26.20;91.70;;;;;;5032763;28;20460;-50
2023/08/06 10:52:52;;;;;;;19.73;19.13;;;26.30;91.40;;;;;;5032913;28;20483;-53
2023/08/06 10:55:26;;;;;;;17.57;17.07;;;26.30;91.50;;;;;;5032974;28;20437;-52
2023/08/06 10:57:54;;;;;;;18.33;17.73;;;26.30;91.30;;;;;;5032667;28;20486;-57
2023/08/06 11:00:24;;;;;;;17.17;16.67;;;26.30;91.10;;;;;;5067977;22;20509;-58
2023/08/06 11:02:52;;;;;;;16.80;16.30;;;26.20;91.10;;;;;;5016542;28;20445;-57
2023/08/06 11:05:20;;;;;;;17.60;17.07;;;26.20;91.20;;;;;;5032594;28;20494;-55
2023/08/06 11:07:48;;;;;;;18.63;18.03;;;26.20;91.20;;;;;;5032521;28;20453;-59
2023/08/06 11:10:15;;;;;;;18.43;17.80;;;26.20;91.30;;;;;;5013405;28;20551;-56
2023/08/06 11:12:42;;;;;;;17.30;16.70;;;26.20;91.10;;;;;;5011280;28;20933;-55
2023/08/06 11:15:11;;;;;;;20.30;19.60;;;26.20;91.10;;;;;;5012534;28;20446;-58
2023/08/06 11:17:41;;;;;;;18.50;17.80;;;26.20;91.10;;;;;;5006377;28;21006;-57
2023/08/06 11:20:09;;;;;;;19.40;18.70;;;26.10;91.00;;;;;;5012165;28;20880;-61
2023/08/06 11:22:39;;;;;;;17.70;17.10;;;26.10;91.00;;;;;;5012393;28;20500;-61
2023/08/06 11:25:07;;;;;;;17.33;16.73;;;26.10;91.10;;;;;;5012413;28;20942;-53
2023/08/06 11:27:34;;;;;;;18.23;17.63;;;26.10;91.00;;;;;;5012278;28;20446;-62
2023/08/06 11:30:02;;;;;;;18.80;18.17;;;26.30;91.00;;;;;;5012115;28;20549;-58
2023/08/06 11:32:29;;;;;;;17.87;17.20;;;26.40;90.70;;;;;;5012412;28;20438;-52
2023/08/06 11:34:57;;;;;;;19.47;18.67;;;26.40;90.70;;;;;;5012954;28;20515;-62
2023/08/06 11:37:25;;;;;;;18.00;17.40;;;26.50;90.50;;;;;;5012346;28;20489;-61
2023/08/06 11:39:53;;;;;;;17.40;16.50;;;26.60;90.30;;;;;;4995834;28;20489;-55
2023/08/06 11:42:20;;;;;;;17.80;17.00;;;26.60;89.90;;;;;;5012079;28;20454;-53
2023/08/06 11:44:47;;;;;;;17.87;17.33;;;26.50;90.00;;;;;;5012007;28;20896;-54
2023/08/06 11:47:16;;;;;;;18.70;18.00;;;26.60;89.60;;;;;;5012276;28;20438;-60
2023/08/06 11:49:45;;;;;;;16.73;16.10;;;26.60;89.40;;;;;;5012058;28;20469;-63
2023/08/06 11:52:15;;;;;;;17.23;16.70;;;26.60;88.70;;;;;;5011870;28;20726;-64
2023/08/06 11:54:43;;;;;;;18.57;17.87;;;26.50;89.30;;;;;;5011789;28;20457;-61
2023/08/06 11:57:11;;;;;;;17.00;16.47;;;26.40;89.40;;;;;;5011830;28;20490;-59
2023/08/06 11:59:38;;;;;;;19.13;18.33;;;26.30;89.50;;;;;;5011651;28;20540;-62
2023/08/06 12:02:06;;;;;;;18.10;17.30;;;26.20;89.20;;;;;;5011421;28;20914;-59
2023/08/06 12:04:48;;;;;;;19.07;18.47;;;26.20;89.50;;;;;;5011665;28;20497;-59
2023/08/06 12:07:17;;;;;;;19.73;18.80;;;26.10;88.80;;;;;;5011543;28;20858;-61
2023/08/06 12:09:44;;;;;;;18.23;17.63;;;25.90;89.20;;;;;;5009356;28;20470;-62
2023/08/06 12:12:13;;;;;;;18.93;18.23;;;25.90;89.80;;;;;;5005634;28;20437;-61
2023/08/06 12:14:40;;;;;;;17.80;17.03;;;25.80;90.00;;;;;;5011574;28;20442;-60
2023/08/06 12:17:07;;;;;;;18.93;17.93;;;25.80;90.10;;;;;;5011520;28;20434;-60
2023/08/06 12:19:34;;;;;;;17.37;16.67;;;25.80;90.10;;;;;;5011305;28;20462;-60
2023/08/06 12:22:05;;;;;;;16.60;15.90;;;25.70;90.20;;;;;;5011211;28;20442;-63
2023/08/06 12:24:33;;;;;;;17.07;16.37;;;25.80;90.40;;;;;;5011157;28;20442;-61
2023/08/06 12:27:02;;;;;;;18.13;17.43;;;25.90;90.90;;;;;;5011442;28;20434;-58
2023/08/06 12:29:30;;;;;;;18.03;17.33;;;25.90;90.70;;;;;;5011329;28;20746;-59
2023/08/06 12:31:57;;;;;;;17.60;16.90;;;25.90;90.50;;;;;;5011003;28;20446;-63
2023/08/06 12:34:24;;;;;;;17.97;17.37;;;26.00;90.50;;;;;;5011267;28;20488;-57
2023/08/06 12:36:51;;;;;;;18.20;17.53;;;26.00;90.40;;;;;;5011303;28;20889;-60
2023/08/06 12:39:18;;;;;;;17.10;16.50;;;26.00;90.70;;;;;;5011014;28;20841;-60